sensor_id;sensor_type;location;lat;lon;timestamp;temperature;humidity
28614;DHT22;15806;53.548;9.964;2022-12-29T00:00:52;12.80;99.90
28614;DHT22;15806;53.548;9.964;2022-12-29T00:02:33;12.80;99.90
28614;DHT22;15806;53.548;9.964;2022-12-29T00:04:14;12.80;99.90
28614;DHT22;15806;53.548;9.964;2022-12-29T00:05:56;12.70;99.90
28614;DHT22;15806;53.548;9.964;2022-12-29T00:07:36;12.70;99.90
28614;DHT22;15806;53.548;9.964;2022-12-29T00:09:17;12.70;99.90
28614;DHT22;15806;53.548;9.964;2022-12-29T00:10:57;12.80;99.90
28614;DHT22;15806;53.548;9.964;2022-12-29T00:12:38;12.70;99.90
28614;DHT22;15806;53.548;9.964;2022-12-29T00:14:19;12.70;99.90
28614;DHT22;15806;53.548;9.964;2022-12-29T00:15:59;12.60;99.90
28614;DHT22;15806;53.548;9.964;2022-12-29T00:17:40;12.50;99.90
28614;DHT22;15806;53.548;9.964;2022-12-29T00:19:20;12.50;99.90
28614;DHT22;15806;53.548;9.964;2022-12-29T00:21:01;12.40;99.90
28614;DHT22;15806;53.548;9.964;2022-12-29T00:22:42;12.20;99.90
28614;DHT22;15806;53.548;9.964;2022-12-29T00:24:22;12.10;99.90
28614;DHT22;15806;53.548;9.964;2022-12-29T00:26:03;12.10;99.90
28614;DHT22;15806;53.548;9.964;2022-12-29T00:27:44;12.00;99.90
28614;DHT22;15806;53.548;9.964;2022-12-29T00:29:24;12.00;99.90
28614;DHT22;15806;53.548;9.964;2022-12-29T00:31:09;12.00;99.90
28614;DHT22;15806;53.548;9.964;2022-12-29T00:32:57;11.90;99.90
28614;DHT22;15806;53.548;9.964;2022-12-29T00:34:38;11.80;99.90
28614;DHT22;15806;53.548;9.964;2022-12-29T00:38:05;11.80;99.90
28614;DHT22;15806;53.548;9.964;2022-12-29T00:39:47;11.80;99.90
28614;DHT22;15806;53.548;9.964;2022-12-29T00:41:28;11.80;99.90
28614;DHT22;15806;53.548;9.964;2022-12-29T00:43:08;11.70;99.90
28614;DHT22;15806;53.548;9.964;2022-12-29T00:44:49;11.70;99.90
28614;DHT22;15806;53.548;9.964;2022-12-29T00:46:29;11.80;99.90
28614;DHT22;15806;53.548;9.964;2022-12-29T00:48:10;11.90;99.90
28614;DHT22;15806;53.548;9.964;2022-12-29T00:49:50;11.80;99.90
28614;DHT22;15806;53.548;9.964;2022-12-29T00:51:31;11.90;99.90
28614;DHT22;15806;53.548;9.964;2022-12-29T00:53:11;11.80;99.90
28614;DHT22;15806;53.548;9.964;2022-12-29T00:54:52;11.80;99.90
28614;DHT22;15806;53.548;9.964;2022-12-29T00:56:32;11.80;99.90
28614;DHT22;15806;53.548;9.964;2022-12-29T00:58:13;11.80;99.90
28614;DHT22;15806;53.548;9.964;2022-12-29T00:59:53;11.80;99.90
28614;DHT22;15806;53.548;9.964;2022-12-29T01:01:35;11.80;99.90
28614;DHT22;15806;53.548;9.964;2022-12-29T01:03:16;11.70;99.90
28614;DHT22;15806;53.548;9.964;2022-12-29T01:04:57;11.80;99.90
28614;DHT22;15806;53.548;9.964;2022-12-29T01:06:39;11.80;99.90
28614;DHT22;15806;53.548;9.964;2022-12-29T01:08:20;11.80;99.90
28614;DHT22;15806;53.548;9.964;2022-12-29T01:10:00;11.70;99.90
28614;DHT22;15806;53.548;9.964;2022-12-29T01:11:41;11.70;99.90
28614;DHT22;15806;53.548;9.964;2022-12-29T01:13:22;11.70;99.90
28614;DHT22;15806;53.548;9.964;2022-12-29T01:15:02;11.70;99.90
28614;DHT22;15806;53.548;9.964;2022-12-29T01:16:44;11.70;99.90
28614;DHT22;15806;53.548;9.964;2022-12-29T01:18:26;11.70;99.90
28614;DHT22;15806;53.548;9.964;2022-12-29T01:20:06;11.70;99.90
28614;DHT22;15806;53.548;9.964;2022-12-29T01:21:47;11.70;99.90
28614;DHT22;15806;53.548;9.964;2022-12-29T01:23:28;11.70;99.90
28614;DHT22;15806;53.548;9.964;2022-12-29T01:25:09;11.70;99.90
28614;DHT22;15806;53.548;9.964;2022-12-29T01:26:49;11.70;99.90
28614;DHT22;15806;53.548;9.964;2022-12-29T01:28:30;11.70;99.90
28614;DHT22;15806;53.548;9.964;2022-12-29T01:30:11;11.60;99.90
28614;DHT22;15806;53.548;9.964;2022-12-29T01:31:51;11.70;99.90
28614;DHT22;15806;53.548;9.964;2022-12-29T01:33:32;11.70;99.90
28614;DHT22;15806;53.548;9.964;2022-12-29T01:35:13;11.70;99.90
28614;DHT22;15806;53.548;9.964;2022-12-29T01:36:53;11.70;99.90
28614;DHT22;15806;53.548;9.964;2022-12-29T01:38:36;11.80;99.90
28614;DHT22;15806;53.548;9.964;2022-12-29T01:40:16;11.80;99.90
28614;DHT22;15806;53.548;9.964;2022-12-29T01:41:57;12.00;99.90
28614;DHT22;15806;53.548;9.964;2022-12-29T01:45:19;12.20;99.90
28614;DHT22;15806;53.548;9.964;2022-12-29T01:47:00;12.30;99.90
28614;DHT22;15806;53.548;9.964;2022-12-29T01:48:42;12.60;99.90
28614;DHT22;15806;53.548;9.964;2022-12-29T01:50:33;12.70;99.90
28614;DHT22;15806;53.548;9.964;2022-12-29T01:52:17;12.80;99.90
28614;DHT22;15806;53.548;9.964;2022-12-29T01:53:59;12.80;99.90
28614;DHT22;15806;53.548;9.964;2022-12-29T01:55:44;13.10;99.90
28614;DHT22;15806;53.548;9.964;2022-12-29T01:57:33;13.20;99.90
28614;DHT22;15806;53.548;9.964;2022-12-29T01:59:18;13.30;99.90
28614;DHT22;15806;53.548;9.964;2022-12-29T02:01:00;13.40;99.90
28614;DHT22;15806;53.548;9.964;2022-12-29T02:02:47;13.50;99.90
28614;DHT22;15806;53.548;9.964;2022-12-29T02:04:31;13.60;99.90
28614;DHT22;15806;53.548;9.964;2022-12-29T02:06:45;13.50;99.90
28614;DHT22;15806;53.548;9.964;2022-12-29T02:08:24;13.50;99.90
28614;DHT22;15806;53.548;9.964;2022-12-29T02:10:07;13.40;99.90
28614;DHT22;15806;53.548;9.964;2022-12-29T02:11:47;13.30;99.90
28614;DHT22;15806;53.548;9.964;2022-12-29T02:13:28;13.30;99.90
28614;DHT22;15806;53.548;9.964;2022-12-29T02:15:09;13.20;99.90
28614;DHT22;15806;53.548;9.964;2022-12-29T02:22:47;12.90;99.90
28614;DHT22;15806;53.548;9.964;2022-12-29T02:27:11;12.70;99.90
28614;DHT22;15806;53.548;9.964;2022-12-29T02:33:29;12.60;99.90
28614;DHT22;15806;53.548;9.964;2022-12-29T02:41:33;12.50;99.90
28614;DHT22;15806;53.548;9.964;2022-12-29T02:45:29;12.60;99.90
28614;DHT22;15806;53.548;9.964;2022-12-29T02:47:16;12.70;99.90
28614;DHT22;15806;53.548;9.964;2022-12-29T02:49:13;12.70;99.90
28614;DHT22;15806;53.548;9.964;2022-12-29T02:51:00;12.70;99.90
28614;DHT22;15806;53.548;9.964;2022-12-29T02:52:57;12.60;99.90
28614;DHT22;15806;53.548;9.964;2022-12-29T02:54:39;12.70;99.90
28614;DHT22;15806;53.548;9.964;2022-12-29T02:56:20;12.60;99.90
28614;DHT22;15806;53.548;9.964;2022-12-29T02:58:19;12.60;99.90
28614;DHT22;15806;53.548;9.964;2022-12-29T03:00:02;12.60;99.90
28614;DHT22;15806;53.548;9.964;2022-12-29T03:01:49;12.40;99.90
28614;DHT22;15806;53.548;9.964;2022-12-29T03:09:43;12.30;99.90
28614;DHT22;15806;53.548;9.964;2022-12-29T03:11:33;12.40;99.90
28614;DHT22;15806;53.548;9.964;2022-12-29T03:13:28;12.40;99.90
28614;DHT22;15806;53.548;9.964;2022-12-29T03:15:18;12.50;99.90
28614;DHT22;15806;53.548;9.964;2022-12-29T03:17:10;12.50;99.90
28614;DHT22;15806;53.548;9.964;2022-12-29T03:19:06;12.60;99.90
28614;DHT22;15806;53.548;9.964;2022-12-29T03:20:55;12.70;99.90
28614;DHT22;15806;53.548;9.964;2022-12-29T03:22:42;12.80;99.90
28614;DHT22;15806;53.548;9.964;2022-12-29T03:24:27;12.60;99.90
28614;DHT22;15806;53.548;9.964;2022-12-29T03:26:11;12.70;99.90
28614;DHT22;15806;53.548;9.964;2022-12-29T03:28:13;12.60;99.90
28614;DHT22;15806;53.548;9.964;2022-12-29T03:30:01;12.50;99.90
28614;DHT22;15806;53.548;9.964;2022-12-29T03:31:43;12.50;99.90
28614;DHT22;15806;53.548;9.964;2022-12-29T03:33:27;12.40;99.90
28614;DHT22;15806;53.548;9.964;2022-12-29T03:35:10;12.30;99.90
28614;DHT22;15806;53.548;9.964;2022-12-29T03:36:55;12.20;99.90
28614;DHT22;15806;53.548;9.964;2022-12-29T03:38:53;12.20;99.90
28614;DHT22;15806;53.548;9.964;2022-12-29T03:40:39;12.10;99.90
28614;DHT22;15806;53.548;9.964;2022-12-29T03:42:25;12.10;99.90
28614;DHT22;15806;53.548;9.964;2022-12-29T03:44:07;12.00;99.90
28614;DHT22;15806;53.548;9.964;2022-12-29T03:45:48;12.10;99.90
28614;DHT22;15806;53.548;9.964;2022-12-29T03:47:28;12.10;99.90
28614;DHT22;15806;53.548;9.964;2022-12-29T03:49:09;12.10;99.90
28614;DHT22;15806;53.548;9.964;2022-12-29T03:50:49;12.20;99.90
28614;DHT22;15806;53.548;9.964;2022-12-29T03:52:30;12.30;99.90
28614;DHT22;15806;53.548;9.964;2022-12-29T03:54:10;12.30;99.90
28614;DHT22;15806;53.548;9.964;2022-12-29T03:55:51;12.30;99.90
28614;DHT22;15806;53.548;9.964;2022-12-29T03:57:31;12.30;99.90
28614;DHT22;15806;53.548;9.964;2022-12-29T03:59:12;12.30;99.90
28614;DHT22;15806;53.548;9.964;2022-12-29T04:00:53;12.50;99.90
28614;DHT22;15806;53.548;9.964;2022-12-29T04:02:33;12.40;99.90
28614;DHT22;15806;53.548;9.964;2022-12-29T04:04:14;12.50;99.90
28614;DHT22;15806;53.548;9.964;2022-12-29T04:05:54;12.50;99.90
28614;DHT22;15806;53.548;9.964;2022-12-29T04:07:35;12.50;99.90
28614;DHT22;15806;53.548;9.964;2022-12-29T04:09:15;12.50;99.90
28614;DHT22;15806;53.548;9.964;2022-12-29T04:10:56;12.50;99.90
28614;DHT22;15806;53.548;9.964;2022-12-29T04:12:36;12.50;99.90
28614;DHT22;15806;53.548;9.964;2022-12-29T04:14:17;12.50;99.90
28614;DHT22;15806;53.548;9.964;2022-12-29T04:15:57;12.60;99.90
28614;DHT22;15806;53.548;9.964;2022-12-29T04:17:38;12.50;99.90
28614;DHT22;15806;53.548;9.964;2022-12-29T04:19:18;12.60;99.90
28614;DHT22;15806;53.548;9.964;2022-12-29T04:20:59;12.60;99.90
28614;DHT22;15806;53.548;9.964;2022-12-29T04:22:39;12.60;99.90
28614;DHT22;15806;53.548;9.964;2022-12-29T04:24:20;12.50;99.90
28614;DHT22;15806;53.548;9.964;2022-12-29T04:26:01;12.70;99.90
28614;DHT22;15806;53.548;9.964;2022-12-29T04:27:42;12.60;99.90
28614;DHT22;15806;53.548;9.964;2022-12-29T04:29:22;12.70;99.90
28614;DHT22;15806;53.548;9.964;2022-12-29T04:31:04;12.70;99.90
28614;DHT22;15806;53.548;9.964;2022-12-29T04:32:44;12.70;99.90
28614;DHT22;15806;53.548;9.964;2022-12-29T04:34:25;12.70;99.90
28614;DHT22;15806;53.548;9.964;2022-12-29T04:36:05;12.60;99.90
28614;DHT22;15806;53.548;9.964;2022-12-29T04:37:46;12.60;99.90
28614;DHT22;15806;53.548;9.964;2022-12-29T04:39:26;12.70;99.90
28614;DHT22;15806;53.548;9.964;2022-12-29T04:41:07;12.70;99.90
28614;DHT22;15806;53.548;9.964;2022-12-29T04:42:47;12.70;99.90
28614;DHT22;15806;53.548;9.964;2022-12-29T04:44:28;12.70;99.90
28614;DHT22;15806;53.548;9.964;2022-12-29T04:46:09;12.70;99.90
28614;DHT22;15806;53.548;9.964;2022-12-29T04:47:49;12.60;99.90
28614;DHT22;15806;53.548;9.964;2022-12-29T04:49:30;12.60;99.90
28614;DHT22;15806;53.548;9.964;2022-12-29T04:51:10;12.50;99.90
28614;DHT22;15806;53.548;9.964;2022-12-29T04:52:51;12.50;99.90
28614;DHT22;15806;53.548;9.964;2022-12-29T04:54:31;12.70;99.90
28614;DHT22;15806;53.548;9.964;2022-12-29T04:56:12;12.60;99.90
28614;DHT22;15806;53.548;9.964;2022-12-29T04:57:52;12.70;99.90
28614;DHT22;15806;53.548;9.964;2022-12-29T04:59:33;12.80;99.90
28614;DHT22;15806;53.548;9.964;2022-12-29T05:01:13;12.80;99.90
28614;DHT22;15806;53.548;9.964;2022-12-29T05:02:54;12.80;99.90
28614;DHT22;15806;53.548;9.964;2022-12-29T05:04:34;13.00;99.90
28614;DHT22;15806;53.548;9.964;2022-12-29T05:06:15;13.00;99.90
28614;DHT22;15806;53.548;9.964;2022-12-29T05:07:55;13.00;99.90
28614;DHT22;15806;53.548;9.964;2022-12-29T05:09:36;13.20;99.90
28614;DHT22;15806;53.548;9.964;2022-12-29T05:11:17;13.20;99.90
28614;DHT22;15806;53.548;9.964;2022-12-29T05:12:57;13.50;99.90
28614;DHT22;15806;53.548;9.964;2022-12-29T05:14:38;13.60;99.90
28614;DHT22;15806;53.548;9.964;2022-12-29T05:16:19;13.80;99.90
28614;DHT22;15806;53.548;9.964;2022-12-29T05:17:59;13.80;99.90
28614;DHT22;15806;53.548;9.964;2022-12-29T05:19:40;13.90;99.90
28614;DHT22;15806;53.548;9.964;2022-12-29T05:21:20;13.90;99.90
28614;DHT22;15806;53.548;9.964;2022-12-29T05:23:01;13.70;99.90
28614;DHT22;15806;53.548;9.964;2022-12-29T05:24:41;13.70;99.90
28614;DHT22;15806;53.548;9.964;2022-12-29T05:26:22;13.80;99.90
28614;DHT22;15806;53.548;9.964;2022-12-29T05:28:02;13.90;99.90
28614;DHT22;15806;53.548;9.964;2022-12-29T05:29:43;14.00;99.90
28614;DHT22;15806;53.548;9.964;2022-12-29T05:31:24;14.00;99.90
28614;DHT22;15806;53.548;9.964;2022-12-29T05:33:04;14.00;99.90
28614;DHT22;15806;53.548;9.964;2022-12-29T05:34:44;13.90;99.90
28614;DHT22;15806;53.548;9.964;2022-12-29T05:36:26;13.70;99.90
28614;DHT22;15806;53.548;9.964;2022-12-29T05:38:06;13.60;99.90
28614;DHT22;15806;53.548;9.964;2022-12-29T05:39:47;13.50;99.90
28614;DHT22;15806;53.548;9.964;2022-12-29T05:41:27;13.40;99.90
28614;DHT22;15806;53.548;9.964;2022-12-29T05:43:08;13.10;99.90
28614;DHT22;15806;53.548;9.964;2022-12-29T05:44:48;13.00;99.90
28614;DHT22;15806;53.548;9.964;2022-12-29T05:46:29;12.80;99.90
28614;DHT22;15806;53.548;9.964;2022-12-29T05:48:10;12.80;99.90
28614;DHT22;15806;53.548;9.964;2022-12-29T05:49:50;12.70;99.90
28614;DHT22;15806;53.548;9.964;2022-12-29T05:51:31;12.60;99.90
28614;DHT22;15806;53.548;9.964;2022-12-29T05:53:11;12.60;99.90
28614;DHT22;15806;53.548;9.964;2022-12-29T05:54:52;12.60;99.90
28614;DHT22;15806;53.548;9.964;2022-12-29T05:56:32;12.50;99.90
28614;DHT22;15806;53.548;9.964;2022-12-29T05:58:13;12.40;99.90
28614;DHT22;15806;53.548;9.964;2022-12-29T05:59:54;12.30;99.90
28614;DHT22;15806;53.548;9.964;2022-12-29T06:01:35;12.20;99.90
28614;DHT22;15806;53.548;9.964;2022-12-29T06:03:15;12.10;99.90
28614;DHT22;15806;53.548;9.964;2022-12-29T06:04:56;12.20;99.90
28614;DHT22;15806;53.548;9.964;2022-12-29T06:06:36;12.10;99.90
28614;DHT22;15806;53.548;9.964;2022-12-29T06:08:17;12.10;99.90
28614;DHT22;15806;53.548;9.964;2022-12-29T06:09:57;12.10;99.90
28614;DHT22;15806;53.548;9.964;2022-12-29T06:11:38;12.20;99.90
28614;DHT22;15806;53.548;9.964;2022-12-29T06:13:18;12.20;99.90
28614;DHT22;15806;53.548;9.964;2022-12-29T06:14:59;12.20;99.90
28614;DHT22;15806;53.548;9.964;2022-12-29T06:16:39;12.20;99.90
28614;DHT22;15806;53.548;9.964;2022-12-29T06:18:20;12.30;99.90
28614;DHT22;15806;53.548;9.964;2022-12-29T06:20:02;12.30;99.90
28614;DHT22;15806;53.548;9.964;2022-12-29T06:21:42;12.40;99.90
28614;DHT22;15806;53.548;9.964;2022-12-29T06:23:23;12.50;99.90
28614;DHT22;15806;53.548;9.964;2022-12-29T06:25:04;12.60;99.90
28614;DHT22;15806;53.548;9.964;2022-12-29T06:26:45;12.70;99.90
28614;DHT22;15806;53.548;9.964;2022-12-29T06:28:25;12.70;99.90
28614;DHT22;15806;53.548;9.964;2022-12-29T06:30:06;12.70;99.90
28614;DHT22;15806;53.548;9.964;2022-12-29T06:31:47;12.60;99.90
28614;DHT22;15806;53.548;9.964;2022-12-29T06:33:28;12.60;99.90
28614;DHT22;15806;53.548;9.964;2022-12-29T06:35:08;12.60;99.90
28614;DHT22;15806;53.548;9.964;2022-12-29T06:36:49;12.50;99.90
28614;DHT22;15806;53.548;9.964;2022-12-29T06:38:30;12.60;99.90
28614;DHT22;15806;53.548;9.964;2022-12-29T06:40:10;12.70;99.90
28614;DHT22;15806;53.548;9.964;2022-12-29T06:41:54;12.90;99.90
28614;DHT22;15806;53.548;9.964;2022-12-29T06:43:35;13.00;99.90
28614;DHT22;15806;53.548;9.964;2022-12-29T06:45:15;13.00;99.90
28614;DHT22;15806;53.548;9.964;2022-12-29T06:46:56;13.10;99.90
28614;DHT22;15806;53.548;9.964;2022-12-29T06:48:36;13.20;99.90
28614;DHT22;15806;53.548;9.964;2022-12-29T06:50:17;13.20;99.90
28614;DHT22;15806;53.548;9.964;2022-12-29T06:51:57;13.20;99.90
28614;DHT22;15806;53.548;9.964;2022-12-29T06:53:38;13.20;99.90
28614;DHT22;15806;53.548;9.964;2022-12-29T06:55:18;13.20;99.90
28614;DHT22;15806;53.548;9.964;2022-12-29T06:56:59;13.20;99.90
28614;DHT22;15806;53.548;9.964;2022-12-29T06:58:39;13.10;99.90
28614;DHT22;15806;53.548;9.964;2022-12-29T07:00:20;13.10;99.90
28614;DHT22;15806;53.548;9.964;2022-12-29T07:02:01;13.10;99.90
28614;DHT22;15806;53.548;9.964;2022-12-29T07:03:42;13.00;99.90
28614;DHT22;15806;53.548;9.964;2022-12-29T07:05:22;13.00;99.90
28614;DHT22;15806;53.548;9.964;2022-12-29T07:07:03;13.10;99.90
28614;DHT22;15806;53.548;9.964;2022-12-29T07:08:43;13.10;99.90
28614;DHT22;15806;53.548;9.964;2022-12-29T07:10:24;13.10;99.90
28614;DHT22;15806;53.548;9.964;2022-12-29T07:12:05;13.10;99.90
28614;DHT22;15806;53.548;9.964;2022-12-29T07:13:45;13.00;99.90
28614;DHT22;15806;53.548;9.964;2022-12-29T07:15:26;13.10;99.90
28614;DHT22;15806;53.548;9.964;2022-12-29T07:17:06;13.00;99.90
28614;DHT22;15806;53.548;9.964;2022-12-29T07:18:47;12.90;99.90
28614;DHT22;15806;53.548;9.964;2022-12-29T07:20:27;12.90;99.90
28614;DHT22;15806;53.548;9.964;2022-12-29T07:22:09;12.90;99.90
28614;DHT22;15806;53.548;9.964;2022-12-29T07:23:50;12.90;99.90
28614;DHT22;15806;53.548;9.964;2022-12-29T07:25:31;12.80;99.90
28614;DHT22;15806;53.548;9.964;2022-12-29T07:27:11;12.80;99.90
28614;DHT22;15806;53.548;9.964;2022-12-29T07:28:52;12.80;99.90
28614;DHT22;15806;53.548;9.964;2022-12-29T07:30:32;12.70;99.90
28614;DHT22;15806;53.548;9.964;2022-12-29T07:32:13;12.60;99.90
28614;DHT22;15806;53.548;9.964;2022-12-29T07:33:54;12.60;99.90
28614;DHT22;15806;53.548;9.964;2022-12-29T07:35:34;12.70;99.90
28614;DHT22;15806;53.548;9.964;2022-12-29T07:37:15;12.60;99.90
28614;DHT22;15806;53.548;9.964;2022-12-29T07:38:56;12.60;99.90
28614;DHT22;15806;53.548;9.964;2022-12-29T07:40:36;12.50;99.90
28614;DHT22;15806;53.548;9.964;2022-12-29T07:42:17;12.50;99.90
28614;DHT22;15806;53.548;9.964;2022-12-29T07:43:57;12.40;99.90
28614;DHT22;15806;53.548;9.964;2022-12-29T07:45:38;12.40;99.90
28614;DHT22;15806;53.548;9.964;2022-12-29T07:47:18;12.40;99.90
28614;DHT22;15806;53.548;9.964;2022-12-29T07:48:59;12.50;99.90
28614;DHT22;15806;53.548;9.964;2022-12-29T07:50:39;12.50;99.90
28614;DHT22;15806;53.548;9.964;2022-12-29T07:52:20;12.60;99.90
28614;DHT22;15806;53.548;9.964;2022-12-29T07:54:00;12.70;99.90
28614;DHT22;15806;53.548;9.964;2022-12-29T07:55:41;12.70;99.90
28614;DHT22;15806;53.548;9.964;2022-12-29T07:57:21;12.80;99.90
28614;DHT22;15806;53.548;9.964;2022-12-29T07:59:02;12.90;99.90
28614;DHT22;15806;53.548;9.964;2022-12-29T08:00:42;12.90;99.90
28614;DHT22;15806;53.548;9.964;2022-12-29T08:02:23;12.80;99.90
28614;DHT22;15806;53.548;9.964;2022-12-29T08:04:04;12.90;99.90
28614;DHT22;15806;53.548;9.964;2022-12-29T08:05:45;12.90;99.90
28614;DHT22;15806;53.548;9.964;2022-12-29T08:07:25;13.00;99.90
28614;DHT22;15806;53.548;9.964;2022-12-29T08:09:06;13.10;99.90
28614;DHT22;15806;53.548;9.964;2022-12-29T08:10:46;13.10;99.90
28614;DHT22;15806;53.548;9.964;2022-12-29T08:12:27;13.10;99.90
28614;DHT22;15806;53.548;9.964;2022-12-29T08:14:07;13.10;99.90
28614;DHT22;15806;53.548;9.964;2022-12-29T08:15:48;13.10;99.90
28614;DHT22;15806;53.548;9.964;2022-12-29T08:17:28;13.10;99.90
28614;DHT22;15806;53.548;9.964;2022-12-29T08:19:10;13.10;99.90
28614;DHT22;15806;53.548;9.964;2022-12-29T08:20:51;13.00;99.90
28614;DHT22;15806;53.548;9.964;2022-12-29T08:22:32;13.00;99.90
28614;DHT22;15806;53.548;9.964;2022-12-29T08:24:12;12.90;99.90
28614;DHT22;15806;53.548;9.964;2022-12-29T08:26:01;12.80;99.90
28614;DHT22;15806;53.548;9.964;2022-12-29T08:27:41;12.80;99.90
28614;DHT22;15806;53.548;9.964;2022-12-29T08:29:22;12.80;99.90
28614;DHT22;15806;53.548;9.964;2022-12-29T08:31:03;12.80;99.90
28614;DHT22;15806;53.548;9.964;2022-12-29T08:32:43;12.90;99.90
28614;DHT22;15806;53.548;9.964;2022-12-29T08:34:24;12.80;99.90
28614;DHT22;15806;53.548;9.964;2022-12-29T08:36:05;12.90;99.90
28614;DHT22;15806;53.548;9.964;2022-12-29T08:37:46;12.80;99.90
28614;DHT22;15806;53.548;9.964;2022-12-29T08:39:28;12.80;99.90
28614;DHT22;15806;53.548;9.964;2022-12-29T08:41:08;12.80;99.90
28614;DHT22;15806;53.548;9.964;2022-12-29T08:42:49;12.80;99.90
28614;DHT22;15806;53.548;9.964;2022-12-29T08:44:29;12.70;99.90
28614;DHT22;15806;53.548;9.964;2022-12-29T08:46:10;12.60;99.90
28614;DHT22;15806;53.548;9.964;2022-12-29T08:47:50;12.60;99.90
28614;DHT22;15806;53.548;9.964;2022-12-29T08:49:31;12.50;99.90
28614;DHT22;15806;53.548;9.964;2022-12-29T08:51:12;12.40;99.90
28614;DHT22;15806;53.548;9.964;2022-12-29T08:52:52;12.30;99.90
28614;DHT22;15806;53.548;9.964;2022-12-29T08:54:33;12.30;99.90
28614;DHT22;15806;53.548;9.964;2022-12-29T08:56:13;12.20;99.90
28614;DHT22;15806;53.548;9.964;2022-12-29T08:57:54;12.20;99.90
28614;DHT22;15806;53.548;9.964;2022-12-29T08:59:34;12.20;99.90
28614;DHT22;15806;53.548;9.964;2022-12-29T09:01:15;12.10;99.90
28614;DHT22;15806;53.548;9.964;2022-12-29T09:02:55;12.00;99.90
28614;DHT22;15806;53.548;9.964;2022-12-29T09:04:36;12.00;99.90
28614;DHT22;15806;53.548;9.964;2022-12-29T09:06:17;11.90;99.90
28614;DHT22;15806;53.548;9.964;2022-12-29T09:07:58;11.90;99.90
28614;DHT22;15806;53.548;9.964;2022-12-29T09:09:38;11.80;99.90
28614;DHT22;15806;53.548;9.964;2022-12-29T09:11:22;11.80;99.90
28614;DHT22;15806;53.548;9.964;2022-12-29T09:13:03;11.70;99.90
28614;DHT22;15806;53.548;9.964;2022-12-29T09:14:46;11.70;99.90
28614;DHT22;15806;53.548;9.964;2022-12-29T09:16:26;11.70;99.90
28614;DHT22;15806;53.548;9.964;2022-12-29T09:18:09;11.70;99.90
28614;DHT22;15806;53.548;9.964;2022-12-29T09:19:49;11.70;99.90
28614;DHT22;15806;53.548;9.964;2022-12-29T09:21:30;11.70;99.90
28614;DHT22;15806;53.548;9.964;2022-12-29T09:23:11;11.60;99.90
28614;DHT22;15806;53.548;9.964;2022-12-29T09:24:52;11.60;99.90
28614;DHT22;15806;53.548;9.964;2022-12-29T09:26:32;11.50;99.90
28614;DHT22;15806;53.548;9.964;2022-12-29T09:28:13;11.50;99.90
28614;DHT22;15806;53.548;9.964;2022-12-29T09:29:53;11.40;99.90
28614;DHT22;15806;53.548;9.964;2022-12-29T09:31:34;11.40;99.90
28614;DHT22;15806;53.548;9.964;2022-12-29T09:33:15;11.40;99.90
28614;DHT22;15806;53.548;9.964;2022-12-29T09:34:55;11.30;99.90
28614;DHT22;15806;53.548;9.964;2022-12-29T09:36:36;11.30;99.90
28614;DHT22;15806;53.548;9.964;2022-12-29T09:38:17;11.30;99.90
28614;DHT22;15806;53.548;9.964;2022-12-29T09:39:57;11.30;99.90
28614;DHT22;15806;53.548;9.964;2022-12-29T09:41:46;11.30;99.90
28614;DHT22;15806;53.548;9.964;2022-12-29T09:43:42;11.30;99.90
28614;DHT22;15806;53.548;9.964;2022-12-29T09:47:16;11.30;99.90
28614;DHT22;15806;53.548;9.964;2022-12-29T09:49:31;11.30;99.90
28614;DHT22;15806;53.548;9.964;2022-12-29T09:51:10;11.20;99.90
28614;DHT22;15806;53.548;9.964;2022-12-29T09:53:10;11.10;99.90
28614;DHT22;15806;53.548;9.964;2022-12-29T09:56:40;11.20;99.90
28614;DHT22;15806;53.548;9.964;2022-12-29T10:00:22;11.10;99.90
28614;DHT22;15806;53.548;9.964;2022-12-29T10:03:57;11.10;99.90
28614;DHT22;15806;53.548;9.964;2022-12-29T10:07:56;11.10;99.90
28614;DHT22;15806;53.548;9.964;2022-12-29T10:09:54;11.20;99.90
28614;DHT22;15806;53.548;9.964;2022-12-29T10:19:57;11.10;99.90
28614;DHT22;15806;53.548;9.964;2022-12-29T10:21:43;11.10;99.90
28614;DHT22;15806;53.548;9.964;2022-12-29T10:23:41;11.10;99.90
28614;DHT22;15806;53.548;9.964;2022-12-29T10:25:26;11.10;99.90
28614;DHT22;15806;53.548;9.964;2022-12-29T10:27:25;11.10;99.90
28614;DHT22;15806;53.548;9.964;2022-12-29T10:29:21;11.10;99.90
28614;DHT22;15806;53.548;9.964;2022-12-29T10:33:21;11.00;99.90
28614;DHT22;15806;53.548;9.964;2022-12-29T10:35:22;11.10;99.90
28614;DHT22;15806;53.548;9.964;2022-12-29T10:37:24;11.00;99.90
28614;DHT22;15806;53.548;9.964;2022-12-29T10:41:17;11.20;99.90
28614;DHT22;15806;53.548;9.964;2022-12-29T10:42:59;11.10;99.90
28614;DHT22;15806;53.548;9.964;2022-12-29T10:44:41;11.20;99.90
28614;DHT22;15806;53.548;9.964;2022-12-29T10:46:25;11.20;99.90
28614;DHT22;15806;53.548;9.964;2022-12-29T10:48:19;11.10;99.90
28614;DHT22;15806;53.548;9.964;2022-12-29T10:50:02;11.10;99.90
28614;DHT22;15806;53.548;9.964;2022-12-29T10:51:44;11.10;99.90
28614;DHT22;15806;53.548;9.964;2022-12-29T10:53:34;11.10;99.90
28614;DHT22;15806;53.548;9.964;2022-12-29T10:55:21;11.10;99.90
28614;DHT22;15806;53.548;9.964;2022-12-29T10:57:08;11.10;99.90
28614;DHT22;15806;53.548;9.964;2022-12-29T10:58:51;11.10;99.90
28614;DHT22;15806;53.548;9.964;2022-12-29T11:00:34;11.10;99.90
28614;DHT22;15806;53.548;9.964;2022-12-29T11:06:27;11.20;99.90
28614;DHT22;15806;53.548;9.964;2022-12-29T11:08:20;11.20;99.90
28614;DHT22;15806;53.548;9.964;2022-12-29T11:10:36;11.20;99.90
28614;DHT22;15806;53.548;9.964;2022-12-29T11:12:31;11.20;99.90
28614;DHT22;15806;53.548;9.964;2022-12-29T11:14:17;11.20;99.90
28614;DHT22;15806;53.548;9.964;2022-12-29T11:15:58;11.10;99.90
28614;DHT22;15806;53.548;9.964;2022-12-29T11:17:47;11.20;99.90
28614;DHT22;15806;53.548;9.964;2022-12-29T11:19:30;11.30;99.90
28614;DHT22;15806;53.548;9.964;2022-12-29T11:21:44;11.30;99.90
28614;DHT22;15806;53.548;9.964;2022-12-29T11:23:41;11.60;99.90
28614;DHT22;15806;53.548;9.964;2022-12-29T11:25:22;11.40;99.90
28614;DHT22;15806;53.548;9.964;2022-12-29T11:27:15;11.30;99.90
28614;DHT22;15806;53.548;9.964;2022-12-29T11:30:59;11.10;99.90
28614;DHT22;15806;53.548;9.964;2022-12-29T11:32:51;11.10;99.90
28614;DHT22;15806;53.548;9.964;2022-12-29T11:34:34;11.10;99.90
28614;DHT22;15806;53.548;9.964;2022-12-29T11:36:18;11.00;99.90
28614;DHT22;15806;53.548;9.964;2022-12-29T11:38:00;11.00;99.90
28614;DHT22;15806;53.548;9.964;2022-12-29T11:40:04;11.00;99.90
28614;DHT22;15806;53.548;9.964;2022-12-29T11:41:51;11.30;99.90
28614;DHT22;15806;53.548;9.964;2022-12-29T11:43:37;11.00;99.90
28614;DHT22;15806;53.548;9.964;2022-12-29T11:45:20;11.00;99.90
28614;DHT22;15806;53.548;9.964;2022-12-29T11:47:02;10.90;99.90
28614;DHT22;15806;53.548;9.964;2022-12-29T11:48:44;10.90;99.90